Graham, Georgia
Current Conditions -  °F | °C
As of 11:35 PM on Wednesday 26 Nov 2014 (Local Time) from KBHC Reporting Station
Clear Clear  
Wind Chill: 46°   Ceiling: Unl
Heat Index: 46°   Visibility: 10mi
Dew Point: 36°   Wind: 3mph
Humidity: 66%   Direction: 240°WSW
Pressure: 30.17"   Gusts: NA
Location:  31.7834°N, 82.3304°W
Report Text: KBHC 270435Z AUTO 24003KT 10SM CLR 08/02 A3017 RMK AO2
Loading
Personal Weather Stations






























Interactive Weather Map New forecast layout! Learn more

10-Day Weather Forecast

Advertisements
Track Severe Weather on mobile